sensor_id;sensor_type;location;lat;lon;timestamp;pressure;altitude;pressure_sealevel;temperature;humidity
71735;BME280;59577;52.122;5.406;2023-03-19T00:02:00;101118.88;;;10.54;91.49
71735;BME280;59577;52.122;5.406;2023-03-19T00:04:42;101117.28;;;10.53;91.45
71735;BME280;59577;52.122;5.406;2023-03-19T00:07:10;101124.28;;;10.54;91.93
71735;BME280;59577;52.122;5.406;2023-03-19T03:13:01;101162.25;;;9.56;99.40
71735;BME280;59577;52.122;5.406;2023-03-19T05:23:38;101221.31;;;7.98;100.00
71735;BME280;59577;52.122;5.406;2023-03-19T05:42:12;101235.78;;;7.84;100.00
71735;BME280;59577;52.122;5.406;2023-03-19T05:44:40;101236.09;;;7.83;100.00
71735;BME280;59577;52.122;5.406;2023-03-19T05:47:07;101240.56;;;7.79;100.00
71735;BME280;59577;52.122;5.406;2023-03-19T05:49:36;101252.44;;;7.78;100.00
71735;BME280;59577;52.122;5.406;2023-03-19T05:52:02;101252.31;;;7.74;100.00
71735;BME280;59577;52.122;5.406;2023-03-19T05:54:30;101258.94;;;7.77;100.00
71735;BME280;59577;52.122;5.406;2023-03-19T05:56:57;101261.94;;;7.75;100.00
71735;BME280;59577;52.122;5.406;2023-03-19T05:59:26;101262.75;;;7.76;100.00
71735;BME280;59577;52.122;5.406;2023-03-19T06:07:20;101269.09;;;7.80;100.00
71735;BME280;59577;52.122;5.406;2023-03-19T06:09:47;101262.88;;;7.88;100.00
71735;BME280;59577;52.122;5.406;2023-03-19T06:12:28;101268.94;;;8.15;100.00
71735;BME280;59577;52.122;5.406;2023-03-19T06:20:30;101277.00;;;8.83;100.00
71735;BME280;59577;52.122;5.406;2023-03-19T06:23:04;101281.56;;;8.91;99.68
71735;BME280;59577;52.122;5.406;2023-03-19T06:25:40;101279.59;;;8.79;98.68
71735;BME280;59577;52.122;5.406;2023-03-19T06:36:09;101289.25;;;8.21;99.61
71735;BME280;59577;52.122;5.406;2023-03-19T06:38:36;101296.00;;;8.27;99.43
71735;BME280;59577;52.122;5.406;2023-03-19T06:41:03;101296.66;;;8.33;99.60
71735;BME280;59577;52.122;5.406;2023-03-19T06:55:34;101304.34;;;8.52;99.39
71735;BME280;59577;52.122;5.406;2023-03-19T06:58:03;101308.28;;;8.54;99.88
71735;BME280;59577;52.122;5.406;2023-03-19T07:00:30;101307.66;;;8.57;99.50
71735;BME280;59577;52.122;5.406;2023-03-19T07:02:57;101305.94;;;8.74;99.94
71735;BME280;59577;52.122;5.406;2023-03-19T07:05:24;101316.19;;;8.89;99.22
71735;BME280;59577;52.122;5.406;2023-03-19T07:07:54;101320.00;;;8.88;99.26
71735;BME280;59577;52.122;5.406;2023-03-19T07:10:21;101323.69;;;8.83;99.10
71735;BME280;59577;52.122;5.406;2023-03-19T07:12:48;101324.34;;;8.80;98.67
71735;BME280;59577;52.122;5.406;2023-03-19T07:15:15;101332.09;;;8.82;98.78
71735;BME280;59577;52.122;5.406;2023-03-19T07:17:45;101328.63;;;8.81;98.77
71735;BME280;59577;52.122;5.406;2023-03-19T07:20:12;101338.63;;;8.81;98.47
71735;BME280;59577;52.122;5.406;2023-03-19T07:22:39;101336.78;;;8.73;98.67
71735;BME280;59577;52.122;5.406;2023-03-19T07:25:06;101340.91;;;8.70;98.17
71735;BME280;59577;52.122;5.406;2023-03-19T07:27:33;101342.81;;;8.70;98.89
71735;BME280;59577;52.122;5.406;2023-03-19T07:30:16;101357.59;;;8.72;98.74
71735;BME280;59577;52.122;5.406;2023-03-19T07:33:11;101362.50;;;8.70;98.68
71735;BME280;59577;52.122;5.406;2023-03-19T07:36:03;101366.03;;;8.62;99.28
71735;BME280;59577;52.122;5.406;2023-03-19T07:38:52;101364.97;;;8.54;99.14
71735;BME280;59577;52.122;5.406;2023-03-19T07:41:27;101374.66;;;8.55;99.16
71735;BME280;59577;52.122;5.406;2023-03-19T07:43:53;101370.94;;;8.60;99.56
71735;BME280;59577;52.122;5.406;2023-03-19T07:46:20;101375.06;;;8.66;99.29
71735;BME280;59577;52.122;5.406;2023-03-19T07:48:57;101387.28;;;8.72;99.05
71735;BME280;59577;52.122;5.406;2023-03-19T07:51:33;101386.31;;;8.68;99.29
71735;BME280;59577;52.122;5.406;2023-03-19T07:54:00;101386.78;;;8.70;98.96
71735;BME280;59577;52.122;5.406;2023-03-19T07:56:27;101392.50;;;8.77;99.17
71735;BME280;59577;52.122;5.406;2023-03-19T07:59:08;101395.47;;;8.84;98.99
71735;BME280;59577;52.122;5.406;2023-03-19T08:01:34;101401.84;;;8.80;98.34
71735;BME280;59577;52.122;5.406;2023-03-19T08:04:01;101407.41;;;8.75;98.14
71735;BME280;59577;52.122;5.406;2023-03-19T08:06:31;101405.50;;;8.75;98.56
71735;BME280;59577;52.122;5.406;2023-03-19T08:08:59;101402.28;;;8.82;98.09
71735;BME280;59577;52.122;5.406;2023-03-19T08:18:11;101406.44;;;9.09;98.27
71735;BME280;59577;52.122;5.406;2023-03-19T08:23:20;101409.28;;;9.34;97.49
71735;BME280;59577;52.122;5.406;2023-03-19T08:40:57;101428.63;;;9.99;94.17
71735;BME280;59577;52.122;5.406;2023-03-19T08:43:30;101436.84;;;9.90;93.95
71735;BME280;59577;52.122;5.406;2023-03-19T08:45:58;101433.22;;;9.86;93.64
71735;BME280;59577;52.122;5.406;2023-03-19T08:48:31;101435.56;;;9.88;93.42
71735;BME280;59577;52.122;5.406;2023-03-19T08:51:01;101435.38;;;9.93;92.84
71735;BME280;59577;52.122;5.406;2023-03-19T08:53:29;101440.25;;;10.00;92.51
71735;BME280;59577;52.122;5.406;2023-03-19T08:58:59;101437.41;;;10.29;92.25
71735;BME280;59577;52.122;5.406;2023-03-19T09:01:28;101432.19;;;10.58;91.72
71735;BME280;59577;52.122;5.406;2023-03-19T09:03:55;101447.53;;;11.15;91.60
71735;BME280;59577;52.122;5.406;2023-03-19T09:06:22;101441.00;;;11.16;88.10
71735;BME280;59577;52.122;5.406;2023-03-19T09:19:56;101461.94;;;11.56;84.81
71735;BME280;59577;52.122;5.406;2023-03-19T11:54:54;101579.41;;;11.23;85.34
71735;BME280;59577;52.122;5.406;2023-03-19T14:23:18;101603.22;;;14.20;71.86
71735;BME280;59577;52.122;5.406;2023-03-19T14:52:48;101625.84;;;13.69;73.11
71735;BME280;59577;52.122;5.406;2023-03-19T14:55:22;101621.19;;;13.69;73.15
71735;BME280;59577;52.122;5.406;2023-03-19T14:57:59;101623.97;;;13.73;73.16
71735;BME280;59577;52.122;5.406;2023-03-19T15:00:47;101618.03;;;13.67;73.42
71735;BME280;59577;52.122;5.406;2023-03-19T15:03:21;101617.31;;;13.54;72.41
71735;BME280;59577;52.122;5.406;2023-03-19T15:06:02;101619.78;;;13.60;73.38
71735;BME280;59577;52.122;5.406;2023-03-19T15:08:34;101608.63;;;13.65;73.97
71735;BME280;59577;52.122;5.406;2023-03-19T15:32:49;101617.22;;;13.67;73.52
71735;BME280;59577;52.122;5.406;2023-03-19T15:44:51;101637.88;;;13.36;74.37
71735;BME280;59577;52.122;5.406;2023-03-19T15:47:22;101644.38;;;13.31;74.43
71735;BME280;59577;52.122;5.406;2023-03-19T15:50:11;101647.56;;;13.21;75.14
71735;BME280;59577;52.122;5.406;2023-03-19T15:52:41;101650.03;;;13.10;75.49
71735;BME280;59577;52.122;5.406;2023-03-19T15:55:08;101664.22;;;13.04;75.45
71735;BME280;59577;52.122;5.406;2023-03-19T15:57:39;101660.63;;;13.00;75.04
71735;BME280;59577;52.122;5.406;2023-03-19T16:00:08;101651.22;;;12.97;75.56
71735;BME280;59577;52.122;5.406;2023-03-19T16:02:39;101653.50;;;12.95;75.46
71735;BME280;59577;52.122;5.406;2023-03-19T16:05:21;101651.81;;;12.90;75.60
71735;BME280;59577;52.122;5.406;2023-03-19T16:07:52;101659.97;;;12.90;75.76
71735;BME280;59577;52.122;5.406;2023-03-19T16:13:25;101669.06;;;12.82;76.34
71735;BME280;59577;52.122;5.406;2023-03-19T16:18:56;101673.69;;;12.82;76.47
71735;BME280;59577;52.122;5.406;2023-03-19T16:21:36;101676.84;;;12.84;77.20
71735;BME280;59577;52.122;5.406;2023-03-19T16:26:39;101673.31;;;12.67;76.25
71735;BME280;59577;52.122;5.406;2023-03-19T16:29:23;101677.50;;;12.65;76.84
71735;BME280;59577;52.122;5.406;2023-03-19T16:31:53;101671.19;;;12.60;76.47
71735;BME280;59577;52.122;5.406;2023-03-19T16:34:34;101676.16;;;12.58;77.08
71735;BME280;59577;52.122;5.406;2023-03-19T16:39:57;101690.00;;;12.53;76.72
71735;BME280;59577;52.122;5.406;2023-03-19T16:42:44;101701.78;;;12.45;76.98
71735;BME280;59577;52.122;5.406;2023-03-19T16:45:18;101705.06;;;12.38;77.51
71735;BME280;59577;52.122;5.406;2023-03-19T16:47:53;101700.69;;;12.34;77.24
71735;BME280;59577;52.122;5.406;2023-03-19T16:50:24;101704.50;;;12.33;78.05
71735;BME280;59577;52.122;5.406;2023-03-19T16:52:54;101703.63;;;12.29;77.79
71735;BME280;59577;52.122;5.406;2023-03-19T16:55:26;101709.63;;;12.22;78.54
71735;BME280;59577;52.122;5.406;2023-03-19T16:58:14;101723.75;;;12.15;78.80
71735;BME280;59577;52.122;5.406;2023-03-19T17:00:42;101718.56;;;12.10;79.10
71735;BME280;59577;52.122;5.406;2023-03-19T17:03:11;101733.94;;;12.06;79.34
71735;BME280;59577;52.122;5.406;2023-03-19T17:05:47;101734.84;;;11.98;79.45
71735;BME280;59577;52.122;5.406;2023-03-19T17:08:14;101740.69;;;11.88;80.01
71735;BME280;59577;52.122;5.406;2023-03-19T17:10:44;101749.16;;;11.74;80.53
71735;BME280;59577;52.122;5.406;2023-03-19T17:13:27;101756.72;;;11.68;81.14
71735;BME280;59577;52.122;5.406;2023-03-19T17:16:01;101758.72;;;11.71;81.21
71735;BME280;59577;52.122;5.406;2023-03-19T17:18:34;101762.25;;;11.59;81.16
71735;BME280;59577;52.122;5.406;2023-03-19T17:21:30;101765.94;;;11.55;82.07
71735;BME280;59577;52.122;5.406;2023-03-19T17:24:56;101774.50;;;11.44;82.49
71735;BME280;59577;52.122;5.406;2023-03-19T17:27:36;101776.31;;;11.40;82.74
71735;BME280;59577;52.122;5.406;2023-03-19T17:30:03;101779.56;;;11.34;82.75
71735;BME280;59577;52.122;5.406;2023-03-19T17:32:30;101791.06;;;11.31;83.01
71735;BME280;59577;52.122;5.406;2023-03-19T17:34:59;101793.75;;;11.31;83.42
71735;BME280;59577;52.122;5.406;2023-03-19T17:58:15;101817.56;;;10.83;83.97
71735;BME280;59577;52.122;5.406;2023-03-19T18:00:42;101825.88;;;10.78;83.93
71735;BME280;59577;52.122;5.406;2023-03-19T18:06:23;101828.94;;;10.67;84.38
71735;BME280;59577;52.122;5.406;2023-03-19T18:09:21;101828.69;;;10.60;84.95
71735;BME280;59577;52.122;5.406;2023-03-19T18:12:00;101839.50;;;10.60;84.71
71735;BME280;59577;52.122;5.406;2023-03-19T18:14:28;101838.41;;;10.61;84.98
71735;BME280;59577;52.122;5.406;2023-03-19T19:22:39;101910.88;;;9.82;87.89
71735;BME280;59577;52.122;5.406;2023-03-19T19:31:22;101917.88;;;9.92;88.17
71735;BME280;59577;52.122;5.406;2023-03-19T19:33:50;101926.28;;;9.90;88.07
71735;BME280;59577;52.122;5.406;2023-03-19T19:36:18;101921.22;;;9.89;88.34
71735;BME280;59577;52.122;5.406;2023-03-19T19:38:50;101926.16;;;9.87;88.65
71735;BME280;59577;52.122;5.406;2023-03-19T20:36:19;101968.13;;;9.58;89.12
71735;BME280;59577;52.122;5.406;2023-03-19T21:11:05;101985.97;;;9.01;89.93
71735;BME280;59577;52.122;5.406;2023-03-19T21:35:01;101993.41;;;9.04;89.70
71735;BME280;59577;52.122;5.406;2023-03-19T21:37:28;101984.22;;;9.06;89.44
71735;BME280;59577;52.122;5.406;2023-03-19T21:48:29;101985.63;;;9.03;90.14
71735;BME280;59577;52.122;5.406;2023-03-19T21:50:58;101987.84;;;9.01;90.31
71735;BME280;59577;52.122;5.406;2023-03-19T21:53:31;101987.84;;;9.01;89.87
71735;BME280;59577;52.122;5.406;2023-03-19T21:55:59;101991.50;;;8.96;89.89
71735;BME280;59577;52.122;5.406;2023-03-19T22:09:07;101998.88;;;8.82;89.76
71735;BME280;59577;52.122;5.406;2023-03-19T22:11:36;101995.41;;;8.81;89.62
71735;BME280;59577;52.122;5.406;2023-03-19T22:16:42;101992.53;;;8.78;90.11
71735;BME280;59577;52.122;5.406;2023-03-19T22:19:14;101986.66;;;8.76;89.49
71735;BME280;59577;52.122;5.406;2023-03-19T22:24:33;102006.63;;;8.75;90.08
71735;BME280;59577;52.122;5.406;2023-03-19T22:27:00;102005.53;;;8.76;89.73
71735;BME280;59577;52.122;5.406;2023-03-19T22:29:27;102017.13;;;8.76;89.48
71735;BME280;59577;52.122;5.406;2023-03-19T22:31:59;102021.44;;;8.77;89.88
71735;BME280;59577;52.122;5.406;2023-03-19T22:37:27;102021.75;;;8.76;89.76
71735;BME280;59577;52.122;5.406;2023-03-19T22:39:54;102026.19;;;8.80;89.63
71735;BME280;59577;52.122;5.406;2023-03-19T22:42:23;102025.72;;;8.78;89.70
71735;BME280;59577;52.122;5.406;2023-03-19T22:44:51;102019.03;;;8.76;89.28
71735;BME280;59577;52.122;5.406;2023-03-19T22:47:22;102027.44;;;8.74;89.21
71735;BME280;59577;52.122;5.406;2023-03-19T22:49:49;102022.34;;;8.73;89.43
71735;BME280;59577;52.122;5.406;2023-03-19T22:52:16;102031.84;;;8.70;89.26
71735;BME280;59577;52.122;5.406;2023-03-19T22:54:43;102026.97;;;8.72;89.69
71735;BME280;59577;52.122;5.406;2023-03-19T22:57:12;102036.63;;;8.73;89.34
71735;BME280;59577;52.122;5.406;2023-03-19T22:59:48;102031.53;;;8.72;89.53
71735;BME280;59577;52.122;5.406;2023-03-19T23:02:26;102039.94;;;8.70;89.20
71735;BME280;59577;52.122;5.406;2023-03-19T23:05:00;102036.75;;;8.68;89.39
71735;BME280;59577;52.122;5.406;2023-03-19T23:07:27;102044.38;;;8.66;89.70
71735;BME280;59577;52.122;5.406;2023-03-19T23:09:54;102034.50;;;8.61;89.71
71735;BME280;59577;52.122;5.406;2023-03-19T23:12:20;102024.53;;;8.62;89.35
71735;BME280;59577;52.122;5.406;2023-03-19T23:14:47;102034.50;;;8.61;89.61
71735;BME280;59577;52.122;5.406;2023-03-19T23:17:15;102034.50;;;8.61;89.08
71735;BME280;59577;52.122;5.406;2023-03-19T23:19:44;102030.84;;;8.57;89.26
71735;BME280;59577;52.122;5.406;2023-03-19T23:22:15;102039.22;;;8.56;89.39
71735;BME280;59577;52.122;5.406;2023-03-19T23:24:42;102041.44;;;8.54;88.95
71735;BME280;59577;52.122;5.406;2023-03-19T23:27:22;102043.66;;;8.52;89.33
71735;BME280;59577;52.122;5.406;2023-03-19T23:29:56;102039.34;;;8.51;89.32
71735;BME280;59577;52.122;5.406;2023-03-19T23:32:25;102034.97;;;8.55;89.67
71735;BME280;59577;52.122;5.406;2023-03-19T23:34:52;102033.84;;;8.56;89.13
71735;BME280;59577;52.122;5.406;2023-03-19T23:37:26;102031.44;;;8.54;89.26
71735;BME280;59577;52.122;5.406;2023-03-19T23:40:12;102026.16;;;8.49;89.78
71735;BME280;59577;52.122;5.406;2023-03-19T23:42:43;102031.09;;;8.47;89.68
71735;BME280;59577;52.122;5.406;2023-03-19T23:45:41;102028.22;;;8.43;90.08
71735;BME280;59577;52.122;5.406;2023-03-19T23:48:30;102034.69;;;8.42;90.07
71735;BME280;59577;52.122;5.406;2023-03-19T23:50:59;102036.31;;;8.43;89.86
71735;BME280;59577;52.122;5.406;2023-03-19T23:53:28;102037.66;;;8.41;90.32
71735;BME280;59577;52.122;5.406;2023-03-19T23:56:09;102025.91;;;8.37;89.81
71735;BME280;59577;52.122;5.406;2023-03-19T23:58:39;102023.81;;;8.34;89.91
